Terminal Aerodrome Forecast
Issued by NWS

Current Version | Previous Version | Graphics & Text | Print | Product List | Glossary On
Versions: 1 2 3 4 5 6 7 8 9 10 11 12 13 14 15 16 17 18 19 20 21 22 23 24 25 26 27 28 29 30 31 32 33 34 35 36 37 38 39 40 41 42 43 44 45 46 47
000
FTUS41 KRNK 260938 AAA
TAFLWB
TAF AMD
KLWB 260938Z 2610/2706 00000KT 3SM -RA BKN012 OVC020
     FM261100 01005KT 2SM -SN BR OVC012
      TEMPO 2612/2616 1/2SM SN FG OVC007
     FM262000 32004KT 5SM BR BKN005 OVC012
     FM270000 00000KT P6SM BKN015 OVC040=

USA.gov is the U.S. government's official web portal to all federal, state and local government web resources and services.